Valgardena — ICKG — position and weather

sailwx.info

Track history (hours):
 
Tides and Currents Weather Stations Pressure Air Temp Water Temp Dewpoint Dewpoint Depression Visibility Wind Speed Wind Dir Waves Ship Positions

Valgardena

Last reported at 2014-Jul-30 13:07 UTC. Time now 2014-Jul-31 15:37 UTC.
Position N 35°49' E 014°33'.

Length 184 m; draft 9.2 m.

Type: Ship. MMSI: 247243800.

Date/timePositionNaut miles runAvg speedWind from/ knotsBaromVisibWave heightAir tempDewpointWater temp
2014-Jul-30 13:07N 35°49' E 014°33'0 0.0
2014-Jul-30 11:20N 35°49' E 014°33'2 2.8
2014-Jul-30 10:33N 35°48' E 014°35'9 8.6
2014-Jul-30 09:34N 35°53' E 014°44'8 7.2
2014-Jul-30 08:31N 35°58' E 014°51'0 0.0
2014-Jul-30 07:25N 35°58' E 014°50'2 2.6
2014-Jul-30 06:28N 36°01' E 014°50'1213.2
2014-Jul-30 05:33N 36°11' E 014°58'2113.9
2014-Jul-30 04:03N 36°28' E 015°13'11211.5
2014-Jul-29 18:19N 38°19' E 015°27'11 0.2
2014-Jul-27 18:22N 38°13' E 015°16'0 0.0
2014-Jul-27 17:29N 38°13' E 015°16'0 0.0
2014-Jul-27 16:29N 38°13' E 015°16'0 0.0
2014-Jul-27 15:29N 38°13' E 015°16'0 0.0
2014-Jul-27 14:28N 38°13' E 015°16'0 0.0
2014-Jul-27 13:28N 38°13' E 015°16'0 0.0
2014-Jul-27 12:29N 38°13' E 015°16'0 0.0
2014-Jul-27 11:29N 38°13' E 015°16'0 0.0
2014-Jul-27 10:29N 38°13' E 015°16'  
2014-Jul-22 04:33N 35°53' E 014°47'1 0.9
2014-Jul-22 03:31N 35°52' E 014°47'0 0.0
2014-Jul-22 02:31N 35°52' E 014°47'0 0.1
2014-Jul-22 01:31N 35°52' E 014°47'5 5.7
2014-Jul-22 00:33N 35°49' E 014°42'8 7.5
2014-Jul-21 23:34N 35°49' E 014°33'0 0.0
2014-Jul-21 22:31N 35°49' E 014°33'0 0.0
2014-Jul-21 21:31N 35°49' E 014°33'0 0.0
2014-Jul-21 19:16N 35°49' E 014°33'0 0.0
2014-Jul-21 15:25N 35°49' E 014°33'0 0.0
2014-Jul-21 12:13N 35°49' E 014°33'0 0.0
2014-Jul-21 11:31N 35°49' E 014°33'0 0.0
2014-Jul-21 10:22N 35°49' E 014°33'0 0.0
2014-Jul-21 09:19N 35°49' E 014°33'0 0.0
2014-Jul-21 08:28N 35°49' E 014°33'0 0.0
2014-Jul-21 02:25N 35°49' E 014°33'0 0.0
2014-Jul-20 22:19N 35°49' E 014°33'0 0.0
2014-Jul-20 19:31N 35°49' E 014°33'0 0.0
2014-Jul-20 18:31N 35°49' E 014°33'0 0.0
2014-Jul-20 17:31N 35°49' E 014°33'0 0.0
2014-Jul-20 16:31N 35°49' E 014°33'0 0.0
2014-Jul-20 15:28N 35°49' E 014°33'0 0.0
2014-Jul-20 14:04N 35°49' E 014°33'0 0.0
2014-Jul-20 13:31N 35°49' E 014°33'  
Track history (hours):
 
Tides and Currents Weather Stations Pressure Air Temp Water Temp Dewpoint Dewpoint Depression Visibility Wind Speed Wind Dir Waves Ship Positions

Valgardena

Last reported at 2014-Jul-30 13:07 UTC. Time now 2014-Jul-31 15:37 UTC.
Position N 35°49' E 014°33'.

Length 184 m; draft 9.2 m.

Type: Ship. MMSI: 247243800.

Date/timePositionNaut miles runAvg speedWind from/ knotsBaromVisibWave heightAir tempDewpointWater temp
2014-Jul-30 13:07N 35°49' E 014°33'0 0.0
2014-Jul-30 11:20N 35°49' E 014°33'2 2.8
2014-Jul-30 10:33N 35°48' E 014°35'9 8.6
2014-Jul-30 09:34N 35°53' E 014°44'8 7.2
2014-Jul-30 08:31N 35°58' E 014°51'0 0.0
2014-Jul-30 07:25N 35°58' E 014°50'2 2.6
2014-Jul-30 06:28N 36°01' E 014°50'1213.2
2014-Jul-30 05:33N 36°11' E 014°58'2113.9
2014-Jul-30 04:03N 36°28' E 015°13'11211.5
2014-Jul-29 18:19N 38°19' E 015°27'11 0.2
2014-Jul-27 18:22N 38°13' E 015°16'0 0.0
2014-Jul-27 17:29N 38°13' E 015°16'0 0.0
2014-Jul-27 16:29N 38°13' E 015°16'0 0.0
2014-Jul-27 15:29N 38°13' E 015°16'0 0.0
2014-Jul-27 14:28N 38°13' E 015°16'0 0.0
2014-Jul-27 13:28N 38°13' E 015°16'0 0.0
2014-Jul-27 12:29N 38°13' E 015°16'0 0.0
2014-Jul-27 11:29N 38°13' E 015°16'0 0.0
2014-Jul-27 10:29N 38°13' E 015°16'  
2014-Jul-22 04:33N 35°53' E 014°47'1 0.9
2014-Jul-22 03:31N 35°52' E 014°47'0 0.0
2014-Jul-22 02:31N 35°52' E 014°47'0 0.1
2014-Jul-22 01:31N 35°52' E 014°47'5 5.7
2014-Jul-22 00:33N 35°49' E 014°42'8 7.5
2014-Jul-21 23:34N 35°49' E 014°33'0 0.0
2014-Jul-21 22:31N 35°49' E 014°33'0 0.0
2014-Jul-21 21:31N 35°49' E 014°33'0 0.0
2014-Jul-21 19:16N 35°49' E 014°33'0 0.0
2014-Jul-21 15:25N 35°49' E 014°33'0 0.0
2014-Jul-21 12:13N 35°49' E 014°33'0 0.0
2014-Jul-21 11:31N 35°49' E 014°33'0 0.0
2014-Jul-21 10:22N 35°49' E 014°33'0 0.0
2014-Jul-21 09:19N 35°49' E 014°33'0 0.0
2014-Jul-21 08:28N 35°49' E 014°33'0 0.0
2014-Jul-21 02:25N 35°49' E 014°33'0 0.0
2014-Jul-20 22:19N 35°49' E 014°33'0 0.0
2014-Jul-20 19:31N 35°49' E 014°33'0 0.0
2014-Jul-20 18:31N 35°49' E 014°33'0 0.0
2014-Jul-20 17:31N 35°49' E 014°33'0 0.0
2014-Jul-20 16:31N 35°49' E 014°33'0 0.0
2014-Jul-20 15:28N 35°49' E 014°33'0 0.0
2014-Jul-20 14:04N 35°49' E 014°33'0 0.0
2014-Jul-20 13:31N 35°49' E 014°33'  

Dump ship's entire track history